Flight Track Log - Related Links

Times and Time Zones

All times are in EDT time to prevent confusion due to time zone crossing. See the KAL1334 flight status page for this flight to view local times or setup timezone preferences in your user account.

Time Position Orientation Groundspeed Altitude Reporting Facility
EDT Latitude Longitude Course Direction KTS MPH feet Rate Location/Type
Thu 11:02:00 PM 35.1428 127.5263 346° North  Level Estimated
Thu 11:03:00 PM 35.2185 127.5039 346° North  Level Estimated
Thu 11:04:00 PM 35.2943 127.4815 346° North  Level Estimated
Thu 11:05:00 PM 35.3700 127.4590 346° North  Level Estimated
Thu 11:06:00 PM 35.4457 127.4365 346° North  Level Estimated
Thu 11:07:00 PM 35.5214 127.4140 346° North  Level Estimated
Thu 11:08:00 PM 35.5971 127.3914 346° North  Level Estimated
Thu 11:09:00 PM 35.6729 127.3688 346° North  Level Estimated
Thu 11:10:00 PM 35.7486 127.3461 346° North  Level Estimated
Thu 11:11:00 PM 35.8243 127.3234 346° North  Level Estimated
Thu 11:12:00 PM 35.9000 127.3007 346° North  Level Estimated
Thu 11:13:00 PM 35.9757 127.2779 346° North  Level Estimated
Thu 11:14:00 PM 36.0513 127.2550 346° North  Level Estimated
Thu 11:15:00 PM 36.1270 127.2321 346° North  Level Estimated
Thu 11:16:00 PM 36.1838 127.2150 346° North  Level Estimated
Thu 11:17:00 PM 36.2405 127.1977 346° North  Level Estimated
Thu 11:18:00 PM 36.2973 127.1805 346° North  Level Estimated
Thu 11:19:00 PM 36.3540 127.1632 346° North  Level Estimated
Thu 11:20:00 PM 36.4108 127.1459 346° North  Level Estimated
Thu 11:21:00 PM 36.4675 127.1286 346° North  Level Estimated
Thu 11:22:00 PM 36.5243 127.1113 346° North  Level Estimated
Thu 11:23:00 PM 36.5810 127.0939 346° North  Level Estimated
Thu 11:24:00 PM 36.6378 127.0765 346° North  Level Estimated
Thu 11:25:00 PM 36.6945 127.0591 346° North  Level Estimated
Thu 11:26:00 PM 36.7513 127.0417 346° North  Level Estimated
Thu 11:27:00 PM 36.8080 127.0242 346° North  Level Estimated
Thu 11:28:00 PM 36.8647 127.0067 346° North  Level Estimated
Thu 11:29:00 PM 36.9215 126.9892 346° North  Level Estimated
Thu 11:30:00 PM 36.9782 126.9716 346° North  Level Estimated
Thu 11:31:00 PM 37.0349 126.9540 346° North  Level Estimated
Thu 11:32:00 PM 37.0916 126.9364 346° North  Level Estimated
Thu 11:33:00 PM 37.1483 126.9188 346° North  Level Estimated
Thu 11:34:00 PM 37.2051 126.9012 346° North  Level Estimated
Thu 11:35:00 PM 37.2618 126.8835 346° North  Level Estimated
Thu 11:36:00 PM 37.3185 126.8658 346° North  Level Estimated
Thu 11:37:00 PM 37.3752 126.8481 346° North  Level Estimated
Thu 11:38:00 PM 37.4319 126.8303 346° North  Level Estimated
Thu 11:39:00 PM 37.4886 126.8125 346° North  Level Estimated
Thu 11:40:00 PM 37.5453 126.7947 346° North  Level Estimated
Thu 11:41:00 PM 37.5583 126.7906 346° North  Level Estimated
Thu 11:42:00 PM 37.5583 126.7906 288° West  Level Estimated
Thu 11:43:00 PM 37.5583 126.7906 288° West  Level Estimated
Thu 11:44:00 PM 37.5583 126.7906 288° West  Level Estimated
Thu 11:45:00 PM 37.5583 126.7906 288° West  Level Estimated
Thu 11:46:00 PM 37.5583 126.7906 288° West  Level Estimated
Thu 11:47:00 PM 37.5583 126.7906 288° West  Level Estimated

Login

Don't have an account? Register now (free) for customized features, flight alerts, and more!